Time;durP1;ratioP1;P1;durP2;ratioP2;P2;SDS_P1;SDS_P2;PMS_P1;PMS_P2;Temp;Humidity;BMP_temperature;BMP_pressure;BME280_temperature;BME280_humidity;BME280_pressure;Samples;Min_cycle;Max_cycle;Signal;HPM_P1;HPM_P2
2022/03/15 00:00:40;;;;;;;239.68;31.40;;;5.10;97.70;;;;;;5060374;28;20460;-77
2022/03/15 00:03:05;;;;;;;245.15;31.60;;;5.10;97.70;;;;;;5069607;28;20035;-77
2022/03/15 00:05:31;;;;;;;284.48;33.60;;;5.10;97.70;;;;;;5063507;28;20114;-77
2022/03/15 00:07:57;;;;;;;263.65;32.65;;;5.00;97.70;;;;;;5062586;28;20082;-77
2022/03/15 00:10:23;;;;;;;344.08;33.47;;;5.10;97.70;;;;;;5059781;28;20024;-77
2022/03/15 00:12:49;;;;;;;286.33;31.08;;;5.00;97.70;;;;;;5067496;28;20379;-77
2022/03/15 00:15:15;;;;;;;306.23;34.42;;;5.00;97.70;;;;;;5066467;28;20031;-77
2022/03/15 00:17:43;;;;;;;298.13;32.85;;;5.00;97.70;;;;;;5068059;28;20028;-77
2022/03/15 00:20:14;;;;;;;184.25;30.58;;;5.00;97.70;;;;;;5066398;28;20052;-77
2022/03/15 00:22:40;;;;;;;272.38;31.80;;;5.00;97.70;;;;;;5067541;28;20036;-77
2022/03/15 00:25:08;;;;;;;343.77;34.55;;;5.00;97.80;;;;;;5058108;28;20060;-77
2022/03/15 00:27:34;;;;;;;259.13;32.05;;;5.00;97.80;;;;;;5062395;28;20494;-77
2022/03/15 00:30:01;;;;;;;263.80;32.38;;;4.90;97.80;;;;;;5067802;28;20036;-77
2022/03/15 00:32:27;;;;;;;311.85;35.60;;;4.90;97.80;;;;;;5067641;28;20040;-77
2022/03/15 00:34:52;;;;;;;390.92;36.72;;;4.90;97.80;;;;;;5064149;28;20036;-77
2022/03/15 00:37:19;;;;;;;286.80;32.83;;;4.90;97.80;;;;;;5067540;28;20467;-77
2022/03/15 00:39:44;;;;;;;320.77;34.33;;;4.80;97.70;;;;;;5066845;28;20025;-77
2022/03/15 00:42:11;;;;;;;325.83;35.17;;;4.80;97.70;;;;;;5068383;28;20366;-78
2022/03/15 00:44:36;;;;;;;245.82;33.53;;;4.70;97.70;;;;;;5063851;28;20035;-77
2022/03/15 00:47:02;;;;;;;193.55;32.25;;;4.80;97.80;;;;;;5056453;28;20044;-77
2022/03/15 00:49:28;;;;;;;413.15;36.03;;;4.70;97.80;;;;;;5058841;28;20135;-77
2022/03/15 00:51:54;;;;;;;186.45;29.77;;;4.60;97.80;;;;;;5068251;28;20033;-77
2022/03/15 00:54:23;;;;;;;405.83;36.67;;;4.60;97.80;;;;;;5068661;28;20106;-77
2022/03/15 00:56:52;;;;;;;364.67;34.95;;;4.60;97.80;;;;;;5066006;28;20463;-77
2022/03/15 00:59:19;;;;;;;393.90;37.15;;;4.60;97.80;;;;;;5066155;28;20111;-78
2022/03/15 01:01:45;;;;;;;389.48;35.17;;;4.60;97.80;;;;;;5068098;28;20028;-77
2022/03/15 01:04:12;;;;;;;354.45;32.40;;;4.50;97.80;;;;;;5067131;28;20047;-77
2022/03/15 01:06:38;;;;;;;355.98;32.97;;;4.50;97.80;;;;;;5069566;28;20093;-77
2022/03/15 01:09:04;;;;;;;374.58;34.05;;;4.50;97.80;;;;;;5070147;28;20912;-77
2022/03/15 01:11:30;;;;;;;337.40;30.95;;;4.40;97.80;;;;;;5072374;28;20094;-77
2022/03/15 01:13:55;;;;;;;190.43;28.55;;;4.40;97.80;;;;;;5069056;28;20041;-77
2022/03/15 01:16:21;;;;;;;413.10;35.47;;;4.30;97.80;;;;;;5072249;28;20032;-77
2022/03/15 01:18:46;;;;;;;426.63;34.72;;;4.20;97.80;;;;;;5071903;28;20413;-77
2022/03/15 01:21:15;;;;;;;461.15;36.20;;;4.20;97.70;;;;;;5058898;28;20067;-77
2022/03/15 01:23:42;;;;;;;402.63;34.30;;;4.10;97.70;;;;;;5062711;28;20037;-77
2022/03/15 01:26:07;;;;;;;411.08;35.33;;;4.10;97.70;;;;;;5069324;28;20032;-77
2022/03/15 01:28:33;;;;;;;319.00;30.38;;;4.00;97.70;;;;;;5068633;28;20456;-77
2022/03/15 01:30:58;;;;;;;318.08;30.00;;;3.90;97.70;;;;;;5068455;28;20020;-78
2022/03/15 01:33:24;;;;;;;240.73;29.83;;;3.90;97.80;;;;;;5070795;28;20029;-77
2022/03/15 01:35:50;;;;;;;250.93;28.27;;;3.90;97.80;;;;;;5069445;28;20474;-77
2022/03/15 01:38:16;;;;;;;209.88;27.52;;;3.80;97.80;;;;;;5072660;28;20071;-77
2022/03/15 01:40:41;;;;;;;243.20;29.73;;;3.80;97.80;;;;;;5069632;28;20340;-77
2022/03/15 01:43:07;;;;;;;358.42;32.00;;;3.70;97.80;;;;;;5070318;28;20476;-77
2022/03/15 01:45:37;;;;;;;252.52;27.60;;;3.70;97.80;;;;;;5066274;28;20025;-77
2022/03/15 01:48:04;;;;;;;319.90;31.97;;;3.80;97.80;;;;;;5067236;28;20036;-77
2022/03/15 01:50:30;;;;;;;274.17;27.70;;;3.80;97.90;;;;;;5067317;28;20077;-77
2022/03/15 01:52:56;;;;;;;228.38;28.30;;;3.80;97.90;;;;;;5071063;28;20115;-77
2022/03/15 01:55:21;;;;;;;254.15;28.98;;;3.70;97.90;;;;;;5067767;28;20050;-77
2022/03/15 01:57:50;;;;;;;292.70;30.45;;;3.70;97.90;;;;;;5067733;28;20375;-77
2022/03/15 02:00:17;;;;;;;264.73;31.20;;;3.70;97.90;;;;;;5070146;28;20028;-77
2022/03/15 02:02:43;;;;;;;304.60;32.75;;;3.70;97.90;;;;;;5072041;28;20032;-77
2022/03/15 02:05:11;;;;;;;337.33;32.25;;;3.70;97.90;;;;;;5069155;28;20447;-77
2022/03/15 02:07:37;;;;;;;243.80;30.75;;;3.70;97.90;;;;;;5070161;28;20075;-77
2022/03/15 02:10:03;;;;;;;167.85;27.85;;;3.70;97.90;;;;;;5065049;28;20041;-77
2022/03/15 02:12:29;;;;;;;235.60;31.25;;;3.70;97.90;;;;;;5061326;28;20040;-76
2022/03/15 02:15:01;;;;;;;278.23;31.92;;;3.70;97.90;;;;;;5072248;28;20029;-77
2022/03/15 02:17:27;;;;;;;213.15;30.73;;;3.70;97.90;;;;;;5072490;28;20035;-77
2022/03/15 02:19:53;;;;;;;246.60;31.38;;;3.60;97.90;;;;;;5068215;28;20036;-77
2022/03/15 02:22:19;;;;;;;168.50;29.77;;;3.60;97.90;;;;;;5068567;28;20411;-77
2022/03/15 02:24:45;;;;;;;300.70;34.60;;;3.60;97.90;;;;;;5063716;28;20103;-77
2022/03/15 02:27:11;;;;;;;123.05;28.08;;;3.50;97.90;;;;;;5069940;28;20059;-77
2022/03/15 02:29:36;;;;;;;169.57;29.05;;;3.40;97.90;;;;;;5063768;28;20444;-77
2022/03/15 02:32:02;;;;;;;266.77;33.38;;;3.40;97.90;;;;;;5069665;28;20115;-77
2022/03/15 02:34:27;;;;;;;310.05;34.53;;;3.30;97.90;;;;;;5070339;28;20020;-77
2022/03/15 02:36:53;;;;;;;298.52;34.55;;;3.20;97.90;;;;;;5068190;28;20107;-76
2022/03/15 02:39:19;;;;;;;252.85;31.08;;;3.20;97.90;;;;;;5069547;28;20028;-77
2022/03/15 02:41:44;;;;;;;329.77;33.60;;;3.10;97.90;;;;;;5071028;28;20044;-77
2022/03/15 02:44:11;;;;;;;226.50;32.00;;;3.10;97.90;;;;;;5067724;28;20478;-77
2022/03/15 02:46:39;;;;;;;192.82;28.95;;;3.00;97.90;;;;;;5065804;28;20023;-77
2022/03/15 02:49:05;;;;;;;191.10;28.50;;;2.90;97.90;;;;;;5065816;28;20044;-77
2022/03/15 02:51:31;;;;;;;289.20;33.80;;;2.90;97.90;;;;;;5068312;28;20020;-76
2022/03/15 02:53:58;;;;;;;350.85;35.35;;;2.80;97.90;;;;;;5069857;28;20340;-76
2022/03/15 02:56:23;;;;;;;165.23;29.52;;;2.80;97.90;;;;;;5067061;28;20477;-77
2022/03/15 02:58:49;;;;;;;319.10;33.70;;;2.70;97.90;;;;;;5070611;28;20016;-77
2022/03/15 03:01:15;;;;;;;152.40;29.42;;;2.70;98.00;;;;;;5069250;28;20021;-77
2022/03/15 03:03:40;;;;;;;282.27;30.88;;;2.60;98.00;;;;;;5070680;28;20436;-77
2022/03/15 03:06:06;;;;;;;245.40;29.52;;;2.50;97.90;;;;;;5067133;28;20025;-77
2022/03/15 03:08:32;;;;;;;193.15;29.90;;;2.40;97.90;;;;;;5070877;28;20029;-77
2022/03/15 03:10:59;;;;;;;163.23;28.33;;;2.30;97.90;;;;;;5067896;28;20058;-78
2022/03/15 03:13:26;;;;;;;113.35;27.65;;;2.30;98.00;;;;;;5069693;28;20028;-77
2022/03/15 03:15:57;;;;;;;129.00;29.50;;;2.20;98.00;;;;;;5069824;28;20471;-78
2022/03/15 03:18:23;;;;;;;153.98;30.45;;;2.10;98.00;;;;;;5071067;28;20016;-77
2022/03/15 03:20:49;;;;;;;94.20;27.38;;;2.10;98.00;;;;;;5064757;28;20036;-77
2022/03/15 03:23:15;;;;;;;210.10;33.13;;;2.10;98.10;;;;;;5070180;28;20017;-77
2022/03/15 03:25:41;;;;;;;133.57;30.63;;;2.00;98.10;;;;;;5063938;28;20466;-77
2022/03/15 03:28:07;;;;;;;95.95;29.20;;;2.00;98.10;;;;;;5070779;28;20039;-78
2022/03/15 03:30:33;;;;;;;79.25;27.88;;;2.00;98.10;;;;;;5069254;28;20016;-77
2022/03/15 03:32:58;;;;;;;93.70;30.27;;;2.00;98.20;;;;;;5068843;28;20050;-77
2022/03/15 03:35:25;;;;;;;87.68;29.83;;;1.90;98.20;;;;;;5065694;28;20041;-77
2022/03/15 03:37:51;;;;;;;117.47;31.67;;;2.00;98.20;;;;;;5069770;28;20507;-77
2022/03/15 03:40:16;;;;;;;122.70;34.13;;;2.10;98.30;;;;;;5069177;28;20028;-77
2022/03/15 03:42:42;;;;;;;127.38;33.67;;;2.10;98.30;;;;;;5078607;28;20135;-77
2022/03/15 03:45:08;;;;;;;147.25;34.63;;;2.00;98.30;;;;;;5069622;28;20036;-77
2022/03/15 03:47:33;;;;;;;110.72;32.08;;;2.10;98.30;;;;;;5069719;28;20043;-78
2022/03/15 03:49:59;;;;;;;311.38;42.15;;;2.00;98.30;;;;;;5065280;28;20035;-77
2022/03/15 03:52:25;;;;;;;177.88;35.28;;;2.00;98.30;;;;;;5058631;28;20029;-77
2022/03/15 03:54:50;;;;;;;120.72;33.90;;;2.00;98.30;;;;;;5065659;28;20044;-77
2022/03/15 03:57:16;;;;;;;149.43;36.85;;;1.90;98.30;;;;;;5068280;28;20024;-77
2022/03/15 03:59:42;;;;;;;209.15;40.28;;;2.10;98.30;;;;;;5067731;28;20035;-77
2022/03/15 04:02:07;;;;;;;227.05;41.25;;;2.10;98.40;;;;;;5065143;28;20056;-77
2022/03/15 04:04:33;;;;;;;238.02;38.30;;;2.10;98.40;;;;;;5069360;28;20055;-77
2022/03/15 04:06:59;;;;;;;174.02;39.20;;;2.10;98.40;;;;;;5068832;28;20021;-77
2022/03/15 04:09:25;;;;;;;175.38;39.70;;;2.10;98.40;;;;;;5062667;28;20724;-76
2022/03/15 04:11:50;;;;;;;152.85;38.83;;;2.00;98.40;;;;;;5068421;28;20035;-77
2022/03/15 04:14:16;;;;;;;126.80;38.08;;;2.00;98.30;;;;;;5067770;28;20032;-77
2022/03/15 04:16:42;;;;;;;133.00;38.88;;;2.00;98.30;;;;;;5063880;28;20036;-77
2022/03/15 04:19:08;;;;;;;132.93;37.28;;;2.00;98.30;;;;;;5068481;28;20032;-77
2022/03/15 04:21:33;;;;;;;154.73;37.92;;;2.00;98.30;;;;;;5067685;28;20056;-77
2022/03/15 04:23:59;;;;;;;161.52;39.38;;;1.90;98.30;;;;;;5067475;28;20075;-77
2022/03/15 04:26:26;;;;;;;122.45;38.13;;;1.80;98.30;;;;;;5066975;28;20033;-77
2022/03/15 04:28:53;;;;;;;144.40;38.38;;;1.90;98.30;;;;;;5069400;28;20356;-76
2022/03/15 04:31:18;;;;;;;144.98;37.92;;;1.90;98.30;;;;;;5063530;28;20440;-77
2022/03/15 04:33:44;;;;;;;135.10;39.22;;;1.80;98.30;;;;;;5069442;28;20029;-77
2022/03/15 04:36:10;;;;;;;121.82;37.45;;;1.80;98.30;;;;;;5069303;28;20058;-78
2022/03/15 04:38:36;;;;;;;119.00;37.00;;;1.70;98.30;;;;;;5069180;28;20056;-78
2022/03/15 04:41:05;;;;;;;137.30;39.80;;;1.60;98.30;;;;;;5068337;28;20031;-77
2022/03/15 04:43:31;;;;;;;144.50;38.63;;;1.70;98.30;;;;;;5068917;28;20024;-78
2022/03/15 04:45:57;;;;;;;136.00;38.03;;;1.60;98.30;;;;;;5071950;28;20055;-78
2022/03/15 04:48:23;;;;;;;146.73;38.78;;;1.50;98.20;;;;;;5071633;28;20052;-77
2022/03/15 04:50:49;;;;;;;161.55;38.35;;;1.60;98.20;;;;;;5065036;28;20113;-78
2022/03/15 04:53:15;;;;;;;136.05;38.78;;;1.60;98.30;;;;;;5072053;28;20032;-77
2022/03/15 04:55:42;;;;;;;153.63;39.17;;;1.80;98.30;;;;;;5068305;28;20477;-78
2022/03/15 04:58:07;;;;;;;138.85;39.25;;;1.90;98.40;;;;;;5073117;28;20455;-78
2022/03/15 05:00:33;;;;;;;145.32;40.80;;;2.00;98.40;;;;;;5069552;28;20032;-78
2022/03/15 05:02:59;;;;;;;144.85;40.97;;;2.00;98.40;;;;;;5066557;28;20039;-77
2022/03/15 05:05:25;;;;;;;130.02;40.25;;;2.00;98.40;;;;;;5064210;28;20025;-78
2022/03/15 05:07:50;;;;;;;146.73;40.70;;;2.10;98.40;;;;;;5067448;28;20387;-78
2022/03/15 05:13:03;;;;;;;143.70;40.45;;;2.00;98.40;;;;;;5069395;28;20039;-77
2022/03/15 05:15:28;;;;;;;158.55;43.10;;;2.10;98.40;;;;;;5066316;28;20421;-78
2022/03/15 05:17:54;;;;;;;133.90;41.45;;;2.10;98.40;;;;;;5066814;28;20017;-77
2022/03/15 05:20:20;;;;;;;168.63;42.50;;;2.10;98.40;;;;;;5065667;28;20430;-76
2022/03/15 05:22:45;;;;;;;170.00;43.78;;;2.10;98.40;;;;;;5058465;28;20099;-76
2022/03/15 05:25:13;;;;;;;160.38;41.50;;;2.00;98.40;;;;;;5067281;28;20020;-76
2022/03/15 05:27:38;;;;;;;147.73;43.30;;;2.00;98.40;;;;;;5071813;28;20032;-76
2022/03/15 05:30:05;;;;;;;159.52;42.70;;;2.00;98.40;;;;;;5076224;28;20028;-75
2022/03/15 05:32:30;;;;;;;159.70;43.47;;;2.20;98.40;;;;;;5071061;28;20036;-75
2022/03/15 05:34:56;;;;;;;168.68;44.30;;;2.10;98.40;;;;;;5066345;28;20035;-75
2022/03/15 05:37:22;;;;;;;151.57;43.70;;;2.20;98.50;;;;;;5071386;28;20040;-76
2022/03/15 05:39:48;;;;;;;157.52;44.97;;;2.20;98.50;;;;;;5072318;28;20033;-76
2022/03/15 05:42:13;;;;;;;183.45;46.78;;;2.30;98.50;;;;;;5071160;28;20064;-75
2022/03/15 05:44:40;;;;;;;168.95;46.30;;;2.30;98.50;;;;;;5073047;28;20051;-75
2022/03/15 05:47:07;;;;;;;184.57;46.38;;;2.50;98.50;;;;;;5070886;28;20029;-74
2022/03/15 05:49:33;;;;;;;185.43;45.13;;;2.40;98.50;;;;;;5068300;28;20403;-74
2022/03/15 05:51:58;;;;;;;140.00;41.85;;;2.30;98.40;;;;;;5067320;28;20047;-75
2022/03/15 05:54:24;;;;;;;168.73;44.50;;;2.40;98.40;;;;;;5067064;28;20380;-75
2022/03/15 05:56:49;;;;;;;158.60;44.45;;;2.40;98.40;;;;;;5065484;28;20055;-76
2022/03/15 05:59:15;;;;;;;166.40;45.45;;;2.40;98.40;;;;;;5066964;28;20361;-75
2022/03/15 06:01:41;;;;;;;154.73;43.80;;;2.40;98.40;;;;;;5070759;28;20502;-75
2022/03/15 06:04:07;;;;;;;150.50;43.45;;;2.40;98.40;;;;;;5069069;28;20137;-75
2022/03/15 06:06:34;;;;;;;156.60;44.58;;;2.40;98.40;;;;;;5069973;28;20028;-74
2022/03/15 06:09:00;;;;;;;188.40;46.05;;;2.50;98.40;;;;;;5070205;28;20035;-75
2022/03/15 06:11:25;;;;;;;152.43;43.38;;;2.50;98.40;;;;;;5070097;28;20025;-77
2022/03/15 06:13:51;;;;;;;147.73;44.80;;;2.50;98.30;;;;;;5069121;28;20120;-75
2022/03/15 06:16:17;;;;;;;157.95;45.15;;;2.60;98.40;;;;;;5066346;28;20029;-75
2022/03/15 06:18:42;;;;;;;166.57;45.53;;;2.60;98.40;;;;;;5074268;28;20022;-75
2022/03/15 06:21:08;;;;;;;159.52;43.53;;;2.60;98.30;;;;;;5065672;28;20100;-75
2022/03/15 06:23:33;;;;;;;164.30;45.58;;;2.60;98.30;;;;;;5071033;28;20031;-75
2022/03/15 06:25:59;;;;;;;166.48;46.75;;;2.70;98.30;;;;;;5068387;28;20025;-75
2022/03/15 06:28:24;;;;;;;151.93;45.72;;;2.80;98.30;;;;;;5072867;28;20024;-75
2022/03/15 06:30:50;;;;;;;142.35;46.22;;;2.80;98.30;;;;;;5070064;28;20032;-75
2022/03/15 06:33:15;;;;;;;144.85;44.90;;;2.90;98.30;;;;;;5069036;28;20064;-76
2022/03/15 06:35:46;;;;;;;154.27;45.90;;;3.00;98.30;;;;;;5062097;28;20032;-75
2022/03/15 06:38:11;;;;;;;146.50;45.67;;;3.10;98.30;;;;;;5071776;28;20163;-75
2022/03/15 06:40:37;;;;;;;146.40;45.15;;;3.20;98.30;;;;;;5074312;28;20086;-75
2022/03/15 06:43:03;;;;;;;156.82;45.72;;;3.30;98.30;;;;;;5071355;28;20117;-75
2022/03/15 06:45:29;;;;;;;133.32;43.28;;;3.30;98.30;;;;;;5059083;28;20075;-75
2022/03/15 06:47:54;;;;;;;141.32;45.17;;;3.40;98.30;;;;;;5067341;28;20021;-75
2022/03/15 06:50:20;;;;;;;125.28;43.05;;;3.50;98.30;;;;;;5057606;28;20082;-75
2022/03/15 06:52:46;;;;;;;129.70;44.10;;;3.60;98.20;;;;;;5064361;28;20036;-76
2022/03/15 06:55:13;;;;;;;128.60;42.95;;;3.60;98.20;;;;;;5064126;28;20090;-74
2022/03/15 06:57:39;;;;;;;126.05;43.53;;;3.70;98.20;;;;;;5061752;28;20381;-75
2022/03/15 07:00:08;;;;;;;118.38;41.53;;;3.80;98.20;;;;;;5071372;28;20028;-74
2022/03/15 07:02:34;;;;;;;126.72;42.28;;;3.80;98.10;;;;;;5065134;28;20412;-74
2022/03/15 07:04:59;;;;;;;112.85;39.40;;;3.90;98.10;;;;;;5063350;28;20039;-73
2022/03/15 07:07:25;;;;;;;118.38;39.90;;;4.00;98.10;;;;;;5056093;28;20112;-74
2022/03/15 07:09:52;;;;;;;123.28;39.13;;;4.10;98.10;;;;;;5061875;28;20104;-74
2022/03/15 07:12:18;;;;;;;111.75;39.22;;;4.10;98.10;;;;;;5064268;28;20040;-74
2022/03/15 07:14:45;;;;;;;118.85;38.65;;;4.20;98.00;;;;;;5067994;28;20516;-75
2022/03/15 07:17:11;;;;;;;100.88;37.20;;;4.20;98.00;;;;;;5066204;28;20016;-74
2022/03/15 07:19:36;;;;;;;118.18;37.38;;;4.30;98.00;;;;;;5057610;28;20112;-74
2022/03/15 07:22:02;;;;;;;94.82;35.83;;;4.40;97.90;;;;;;5063401;28;20376;-74
2022/03/15 07:24:28;;;;;;;99.45;36.10;;;4.40;98.00;;;;;;5051763;28;20384;-74
2022/03/15 07:26:53;;;;;;;92.10;33.83;;;4.50;97.90;;;;;;5067111;28;20111;-74
2022/03/15 07:29:19;;;;;;;94.00;33.83;;;4.60;97.90;;;;;;5070208;28;20140;-75
2022/03/15 07:31:44;;;;;;;91.85;33.58;;;4.60;97.90;;;;;;5064594;28;20024;-74
2022/03/15 07:34:10;;;;;;;83.75;32.53;;;4.80;97.90;;;;;;5060580;28;20401;-73
2022/03/15 07:36:35;;;;;;;82.93;32.13;;;4.90;97.90;;;;;;5061681;28;20037;-74
2022/03/15 07:39:02;;;;;;;95.72;32.95;;;5.00;97.90;;;;;;5059990;28;20061;-74
2022/03/15 07:41:28;;;;;;;82.63;31.45;;;5.00;97.90;;;;;;5061988;28;20013;-74
2022/03/15 07:43:53;;;;;;;85.38;31.85;;;5.10;97.80;;;;;;5064964;28;20036;-75
2022/03/15 07:46:19;;;;;;;77.90;30.98;;;5.30;97.90;;;;;;5068973;28;20492;-74
2022/03/15 07:48:44;;;;;;;61.97;29.25;;;5.30;97.90;;;;;;5061569;28;20371;-75
2022/03/15 07:51:10;;;;;;;63.13;27.92;;;5.30;97.80;;;;;;5064963;28;20417;-75
2022/03/15 07:53:36;;;;;;;68.63;27.48;;;5.30;97.70;;;;;;5065504;28;20028;-74
2022/03/15 07:56:01;;;;;;;68.05;27.50;;;5.40;97.70;;;;;;5049564;28;20040;-75
2022/03/15 07:58:27;;;;;;;61.67;26.42;;;5.60;97.70;;;;;;5061317;28;20467;-74
2022/03/15 08:00:56;;;;;;;68.60;26.65;;;5.60;97.80;;;;;;5054029;28;20168;-74
2022/03/15 08:03:22;;;;;;;57.30;25.17;;;5.70;97.70;;;;;;5061838;28;20021;-74
2022/03/15 08:05:48;;;;;;;48.28;23.67;;;5.80;97.60;;;;;;5065071;28;20467;-75
2022/03/15 08:08:15;;;;;;;63.60;24.17;;;5.70;97.60;;;;;;5065415;28;20032;-75
2022/03/15 08:10:41;;;;;;;53.97;23.90;;;5.80;97.60;;;;;;5062614;28;20044;-75
2022/03/15 08:13:06;;;;;;;46.13;22.67;;;5.80;97.50;;;;;;5064995;28;20110;-74
2022/03/15 08:15:32;;;;;;;43.28;20.15;;;5.90;97.50;;;;;;5059826;28;20032;-74
2022/03/15 08:17:57;;;;;;;45.72;21.50;;;5.90;97.50;;;;;;5060227;28;20388;-75
2022/03/15 08:20:27;;;;;;;44.50;21.55;;;6.00;97.50;;;;;;5061900;28;20335;-74
2022/03/15 08:22:54;;;;;;;35.55;20.60;;;6.20;97.60;;;;;;5066371;28;20043;-75
2022/03/15 08:25:20;;;;;;;38.72;20.48;;;6.40;97.60;;;;;;5060189;28;20071;-74
2022/03/15 08:27:45;;;;;;;44.22;20.67;;;6.50;97.50;;;;;;5067015;28;20475;-75
2022/03/15 08:30:11;;;;;;;34.47;19.17;;;6.50;97.30;;;;;;5070740;28;20499;-74
2022/03/15 08:32:37;;;;;;;33.67;18.25;;;6.50;97.10;;;;;;5067571;28;20123;-75
2022/03/15 08:35:03;;;;;;;30.88;18.63;;;6.60;97.20;;;;;;5061412;28;20035;-75
2022/03/15 08:37:28;;;;;;;36.10;20.33;;;6.80;97.30;;;;;;5063920;28;20028;-75
2022/03/15 08:39:55;;;;;;;31.65;19.15;;;6.90;97.20;;;;;;5073333;28;20033;-75
2022/03/15 08:42:21;;;;;;;29.08;17.48;;;6.90;97.00;;;;;;5074783;28;20090;-75
2022/03/15 08:44:46;;;;;;;30.80;17.42;;;6.90;96.80;;;;;;5066178;28;20050;-75
2022/03/15 08:47:12;;;;;;;28.60;16.77;;;7.00;96.80;;;;;;5064975;28;20032;-74
2022/03/15 08:49:38;;;;;;;25.35;16.40;;;7.00;96.60;;;;;;5059939;28;20515;-74
2022/03/15 08:52:07;;;;;;;31.02;15.98;;;7.00;96.40;;;;;;5068349;28;20025;-75
2022/03/15 08:54:34;;;;;;;25.48;15.32;;;6.90;96.00;;;;;;5061184;28;20056;-75
2022/03/15 08:56:59;;;;;;;24.58;15.13;;;7.10;96.30;;;;;;5071857;28;20360;-74
2022/03/15 08:59:25;;;;;;;29.67;15.95;;;7.00;95.90;;;;;;5076892;28;20031;-74
2022/03/15 09:01:52;;;;;;;24.67;15.43;;;7.10;95.80;;;;;;5061922;28;20025;-74
2022/03/15 09:04:17;;;;;;;26.58;15.48;;;7.30;96.10;;;;;;5062382;28;20033;-74
2022/03/15 09:06:43;;;;;;;27.33;15.93;;;7.30;95.70;;;;;;5063527;28;20426;-75
2022/03/15 09:09:08;;;;;;;27.38;15.90;;;7.60;95.70;;;;;;5077199;28;20095;-75
2022/03/15 09:11:34;;;;;;;27.77;14.13;;;7.60;95.40;;;;;;5072548;28;20020;-75
2022/03/15 09:14:00;;;;;;;26.27;14.23;;;7.40;94.50;;;;;;5068679;28;20036;-75
2022/03/15 09:16:26;;;;;;;26.73;15.32;;;7.50;94.20;;;;;;5070930;28;20479;-74
2022/03/15 09:18:51;;;;;;;26.55;15.38;;;7.80;94.90;;;;;;5074440;28;20056;-75
2022/03/15 09:21:18;;;;;;;30.75;17.48;;;8.10;94.70;;;;;;5070533;28;20416;-75
2022/03/15 09:23:44;;;;;;;32.10;17.88;;;8.20;94.50;;;;;;5065331;28;20028;-75
2022/03/15 09:26:10;;;;;;;33.72;19.42;;;8.30;94.10;;;;;;5068719;28;20025;-75
2022/03/15 09:28:37;;;;;;;35.45;20.15;;;8.30;93.80;;;;;;5074158;28;20077;-75
2022/03/15 09:31:03;;;;;;;36.50;21.98;;;8.40;93.50;;;;;;5062546;28;20028;-74
2022/03/15 09:33:29;;;;;;;33.95;22.23;;;8.50;93.00;;;;;;5062867;28;20459;-75
2022/03/15 09:35:55;;;;;;;35.70;20.85;;;8.40;92.70;;;;;;5063398;28;20430;-75
2022/03/15 09:38:21;;;;;;;30.17;20.83;;;8.20;91.70;;;;;;5072190;28;20056;-75
2022/03/15 09:40:52;;;;;;;31.67;20.70;;;8.10;91.60;;;;;;5072304;28;20176;-74
2022/03/15 09:43:21;;;;;;;37.10;20.30;;;8.00;91.50;;;;;;5061300;28;20073;-76
2022/03/15 09:45:49;;;;;;;38.83;20.67;;;8.10;91.40;;;;;;5072841;28;20025;-76
2022/03/15 09:48:19;;;;;;;32.42;20.33;;;8.10;91.80;;;;;;5066429;28;20024;-76
2022/03/15 09:50:48;;;;;;;34.50;21.08;;;8.30;91.70;;;;;;5056550;28;20021;-75
2022/03/15 09:53:16;;;;;;;32.65;21.40;;;8.30;91.50;;;;;;5072074;28;20058;-75
2022/03/15 09:55:48;;;;;;;32.67;21.20;;;8.40;91.60;;;;;;5067110;28;20035;-75
2022/03/15 09:58:18;;;;;;;33.33;20.33;;;8.40;91.50;;;;;;5069416;28;20032;-76
2022/03/15 10:00:46;;;;;;;32.65;19.75;;;8.50;91.30;;;;;;5066694;28;20036;-75
2022/03/15 10:03:17;;;;;;;35.33;19.52;;;8.40;91.10;;;;;;5066993;28;20040;-75
2022/03/15 10:05:44;;;;;;;32.88;19.58;;;8.60;91.40;;;;;;5068693;28;20017;-75
2022/03/15 10:08:13;;;;;;;33.90;20.40;;;8.60;91.00;;;;;;5071790;28;20048;-76
2022/03/15 10:10:39;;;;;;;32.72;18.42;;;8.70;90.90;;;;;;5070152;28;20371;-76
2022/03/15 10:13:04;;;;;;;32.08;18.00;;;8.70;90.80;;;;;;5070900;28;20048;-76
2022/03/15 10:15:30;;;;;;;28.90;17.63;;;8.80;90.60;;;;;;5070345;28;20036;-76
2022/03/15 10:18:04;;;;;;;29.75;19.27;;;9.00;90.70;;;;;;5067834;28;20025;-75
2022/03/15 10:20:40;;;;;;;27.17;17.30;;;9.10;90.40;;;;;;5062139;28;20401;-76
2022/03/15 10:23:08;;;;;;;32.22;17.65;;;9.20;90.30;;;;;;5069466;28;20063;-76
2022/03/15 10:25:34;;;;;;;32.45;17.88;;;9.30;89.90;;;;;;5068841;28;20029;-76
2022/03/15 10:28:03;;;;;;;29.65;17.23;;;9.20;89.80;;;;;;5070070;28;20368;-76
2022/03/15 10:30:30;;;;;;;30.67;17.50;;;9.10;89.40;;;;;;5061306;28;20029;-76
2022/03/15 10:32:57;;;;;;;26.52;17.25;;;9.10;89.00;;;;;;5072026;28;20035;-76
2022/03/15 10:35:29;;;;;;;30.10;18.45;;;9.30;89.60;;;;;;5068566;28;20479;-76
2022/03/15 10:37:56;;;;;;;30.48;17.50;;;9.50;89.50;;;;;;5066321;28;20445;-76
2022/03/15 10:40:40;;;;;;;28.98;17.27;;;9.60;89.00;;;;;;5069163;28;20016;-76
2022/03/15 10:43:10;;;;;;;25.65;16.85;;;9.70;88.60;;;;;;5080470;28;20040;-75
2022/03/15 10:45:40;;;;;;;28.35;17.30;;;9.80;88.60;;;;;;5066841;28;20020;-75
2022/03/15 10:48:27;;;;;;;26.90;16.95;;;10.00;88.60;;;;;;5061621;28;20369;-75
2022/03/15 10:51:10;;;;;;;25.70;16.30;;;10.10;88.10;;;;;;5058752;28;20122;-76
2022/03/15 10:53:38;;;;;;;32.63;16.90;;;10.10;87.90;;;;;;5072205;28;20031;-75
2022/03/15 10:56:15;;;;;;;31.52;17.88;;;10.00;87.30;;;;;;5064480;28;20040;-76
2022/03/15 10:58:59;;;;;;;32.45;18.73;;;10.00;87.60;;;;;;5071771;28;20066;-75
2022/03/15 11:01:26;;;;;;;29.15;18.35;;;10.40;87.90;;;;;;5065804;28;20017;-75
2022/03/15 11:04:10;;;;;;;27.58;17.25;;;10.60;87.60;;;;;;5065683;28;20490;-76
2022/03/15 11:06:40;;;;;;;29.40;18.30;;;10.40;85.10;;;;;;5057167;28;20059;-75
2022/03/15 11:09:18;;;;;;;30.70;18.38;;;10.70;86.40;;;;;;5066457;28;20078;-74
2022/03/15 11:11:47;;;;;;;35.17;19.55;;;10.80;86.00;;;;;;5064859;28;20020;-75
2022/03/15 11:14:13;;;;;;;27.83;17.73;;;10.80;85.20;;;;;;5071081;28;20032;-75
2022/03/15 11:16:42;;;;;;;28.98;18.55;;;10.90;84.90;;;;;;5071550;28;20456;-75
2022/03/15 11:19:12;;;;;;;26.52;17.10;;;11.00;84.90;;;;;;5064068;28;20025;-75
2022/03/15 11:21:40;;;;;;;29.55;19.08;;;11.10;84.70;;;;;;5064232;28;20020;-75
2022/03/15 11:24:11;;;;;;;28.83;18.65;;;11.30;84.20;;;;;;5062389;28;20032;-75
2022/03/15 11:26:44;;;;;;;26.38;18.63;;;11.40;84.30;;;;;;5059306;28;20127;-73
2022/03/15 11:29:11;;;;;;;30.83;20.05;;;11.50;83.90;;;;;;5061356;28;20036;-74
2022/03/15 11:31:40;;;;;;;30.75;19.88;;;11.30;82.70;;;;;;5067030;28;20035;-75
2022/03/15 11:34:07;;;;;;;28.92;19.42;;;11.40;83.20;;;;;;5060262;28;20121;-74
2022/03/15 11:36:33;;;;;;;29.83;19.38;;;11.40;81.80;;;;;;5059004;28;20036;-74
2022/03/15 11:38:59;;;;;;;29.15;19.10;;;11.40;82.30;;;;;;5064417;28;20025;-74
2022/03/15 11:41:28;;;;;;;32.28;20.48;;;11.60;83.00;;;;;;5067014;28;20449;-74
2022/03/15 11:44:11;;;;;;;30.83;19.42;;;11.70;82.30;;;;;;5063193;28;20033;-74
2022/03/15 11:46:45;;;;;;;34.83;20.17;;;11.50;81.20;;;;;;5060054;28;20032;-74
2022/03/15 11:49:38;;;;;;;30.52;19.25;;;11.90;81.30;;;;;;5061239;28;20021;-74
2022/03/15 11:52:19;;;;;;;32.00;19.75;;;11.90;81.90;;;;;;5068998;28;20639;-74
2022/03/15 11:54:55;;;;;;;30.25;19.52;;;12.00;81.20;;;;;;5058101;28;20025;-74
2022/03/15 11:57:39;;;;;;;29.52;18.75;;;12.00;80.40;;;;;;5059454;28;20029;-75
2022/03/15 12:00:06;;;;;;;29.58;19.33;;;12.00;80.90;;;;;;5061890;28;20041;-74
2022/03/15 12:02:39;;;;;;;32.92;21.15;;;12.00;80.10;;;;;;5063201;28;20492;-75
2022/03/15 12:05:20;;;;;;;33.47;21.40;;;12.10;79.80;;;;;;5058134;28;20033;-75
2022/03/15 12:08:11;;;;;;;31.77;21.23;;;12.30;80.00;;;;;;5061395;28;20026;-73
2022/03/15 12:10:37;;;;;;;33.08;20.48;;;12.30;79.20;;;;;;5060530;28;20071;-73
2022/03/15 12:13:05;;;;;;;33.53;21.50;;;12.20;78.00;;;;;;5063609;28;20041;-74
2022/03/15 12:15:45;;;;;;;36.60;20.80;;;12.40;79.20;;;;;;5061231;28;20119;-73
2022/03/15 12:18:33;;;;;;;34.00;22.05;;;12.50;77.70;;;;;;5059870;28;20063;-73
2022/03/15 12:21:10;;;;;;;28.90;20.05;;;12.60;78.50;;;;;;5056858;28;20059;-74
2022/03/15 12:23:41;;;;;;;35.00;20.60;;;12.60;77.90;;;;;;5059711;28;20422;-73
2022/03/15 12:26:26;;;;;;;35.78;20.45;;;12.40;78.40;;;;;;5067596;28;20054;-73
2022/03/15 12:29:02;;;;;;;31.67;20.48;;;12.50;77.60;;;;;;5053817;28;20087;-74
2022/03/15 12:31:47;;;;;;;30.77;20.77;;;12.30;78.00;;;;;;5066408;28;20039;-73
2022/03/15 12:34:16;;;;;;;33.00;21.98;;;12.30;78.50;;;;;;5064962;28;20029;-74